Time;durP1;ratioP1;P1;durP2;ratioP2;P2;SDS_P1;SDS_P2;PMS_P1;PMS_P2;Temp;Humidity;BMP_temperature;BMP_pressure;BME280_temperature;BME280_humidity;BME280_pressure;Samples;Min_cycle;Max_cycle;Signal;HPM_P1;HPM_P2
2024/01/24 00:01:04;;;;;;;;;0.00;0.00;;;;;14.72;85.61;101866.53;5037580;28;72227;-66
2024/01/24 00:03:30;;;;;;;;;0.00;0.00;;;;;14.71;85.91;101872.69;5052100;28;71387;-66
2024/01/24 00:05:55;;;;;;;;;1.00;0.00;;;;;14.71;85.90;101881.44;5041788;28;69229;-67
2024/01/24 00:08:20;;;;;;;;;0.00;0.00;;;;;14.71;85.41;101889.34;5042962;28;64094;-65
2024/01/24 00:10:46;;;;;;;;;0.75;0.00;;;;;14.71;85.41;101876.16;5036724;28;74390;-66
2024/01/24 00:13:11;;;;;;;;;0.00;0.00;;;;;14.71;85.51;101876.16;5039189;28;45485;-66
2024/01/24 00:15:36;;;;;;;;;0.00;0.00;;;;;14.70;85.09;101871.81;5048040;28;54327;-66
2024/01/24 00:18:02;;;;;;;;;0.00;0.00;;;;;14.72;85.34;101879.69;5035049;28;45813;-65
2024/01/24 00:20:27;;;;;;;;;0.00;0.00;;;;;14.72;84.77;101875.28;5033602;28;47157;-65
2024/01/24 00:22:52;;;;;;;;;0.00;0.00;;;;;14.73;84.91;101881.41;5047603;28;45378;-66
2024/01/24 00:25:18;;;;;;;;;0.00;0.00;;;;;14.72;84.73;101867.38;5050296;28;55906;-65
2024/01/24 00:27:43;;;;;;;;;0.00;0.00;;;;;14.75;85.01;101867.31;5042034;28;73432;-65
2024/01/24 00:30:09;;;;;;;;;1.00;0.00;;;;;14.77;84.72;101868.13;5046744;28;45909;-66
2024/01/24 00:32:34;;;;;;;;;0.00;0.00;;;;;14.80;84.94;101875.06;5042770;28;45482;-66
2024/01/24 00:35:00;;;;;;;;;0.75;0.00;;;;;14.83;84.60;101874.13;5054993;28;65411;-67
2024/01/24 00:37:25;;;;;;;;;0.00;0.00;;;;;14.81;84.46;101866.28;5050998;28;68415;-67
2024/01/24 00:39:50;;;;;;;;;0.00;0.00;;;;;14.84;84.56;101876.75;5045438;28;75769;-66
2024/01/24 00:42:16;;;;;;;;;0.00;0.00;;;;;14.85;84.77;101877.59;5043644;28;45568;-66
2024/01/24 00:44:42;;;;;;;;;0.00;0.00;;;;;14.85;84.67;101869.69;5052013;28;48803;-67
2024/01/24 00:47:07;;;;;;;;;0.75;0.00;;;;;14.86;84.66;101890.72;5049231;28;45472;-67
2024/01/24 00:49:33;;;;;;;;;0.00;0.00;;;;;14.85;84.33;101883.72;5042149;28;73386;-67
2024/01/24 00:51:58;;;;;;;;;0.00;0.00;;;;;14.86;84.53;101893.38;5055317;28;69637;-65
2024/01/24 00:54:24;;;;;;;;;0.00;0.00;;;;;14.86;84.26;101887.25;5053035;28;69198;-66
2024/01/24 00:56:49;;;;;;;;;0.00;0.00;;;;;14.85;84.67;101896.03;5058259;28;45342;-67
2024/01/24 00:59:14;;;;;;;;;0.00;0.00;;;;;14.85;84.59;101889.00;5046491;28;68419;-67
2024/01/24 01:01:40;;;;;;;;;0.00;0.00;;;;;14.87;84.67;101884.53;5048582;28;72167;-68
2024/01/24 01:04:05;;;;;;;;;0.00;0.00;;;;;14.87;85.72;101896.88;5053295;28;69645;-66
2024/01/24 01:06:30;;;;;;;;;0.00;0.00;;;;;14.87;85.01;101889.81;5045388;28;64712;-66
2024/01/24 01:08:56;;;;;;;;;0.00;0.00;;;;;14.87;84.64;101888.97;5048890;28;46062;-66
2024/01/24 01:11:21;;;;;;;;;0.00;0.00;;;;;14.83;85.00;101882.91;5051659;28;56834;-66
2024/01/24 01:13:47;;;;;;;;;0.00;0.00;;;;;14.84;85.10;101897.81;5053231;28;45213;-66
2024/01/24 01:16:13;;;;;;;;;0.00;0.00;;;;;14.81;84.94;101890.84;5051098;28;45437;-66
2024/01/24 01:18:38;;;;;;;;;0.00;0.00;;;;;14.82;84.83;101907.53;5054683;28;72070;-66
2024/01/24 01:21:04;;;;;;;;;0.00;0.00;;;;;14.79;85.44;101895.28;5051347;28;45434;-66
2024/01/24 01:23:29;;;;;;;;;1.00;0.00;;;;;14.76;85.45;101898.00;5051008;28;45414;-66
2024/01/24 01:25:55;;;;;;;;;0.00;0.00;;;;;14.75;86.08;101900.66;5055719;28;50415;-65
2024/01/24 01:28:20;;;;;;;;;0.00;0.00;;;;;14.73;86.72;101881.41;5055143;28;62418;-66
2024/01/24 01:30:45;;;;;;;;;0.00;0.00;;;;;14.70;86.62;101881.50;5050017;28;62697;-65
2024/01/24 01:33:11;;;;;;;;;0.00;0.00;;;;;14.68;86.63;101878.03;5042750;28;68196;-64
2024/01/24 01:35:36;;;;;;;;;0.25;0.00;;;;;14.66;87.06;101870.19;5044364;28;45771;-66
2024/01/24 01:38:02;;;;;;;;;0.00;0.00;;;;;14.63;87.25;101872.03;5055412;28;46486;-66
2024/01/24 01:40:28;;;;;;;;;0.00;0.00;;;;;14.61;87.54;101869.44;5050149;28;52291;-66
2024/01/24 01:42:53;;;;;;;;;0.00;0.00;;;;;14.60;87.69;101867.69;5041404;28;45350;-66
2024/01/24 01:45:19;;;;;;;;;0.00;0.00;;;;;14.59;87.85;101874.75;5037543;28;51687;-67
2024/01/24 01:47:46;;;;;;;;;0.00;0.00;;;;;14.58;87.69;101887.94;5039451;28;45497;-67
2024/01/24 01:50:14;;;;;;;;;0.00;0.00;;;;;14.55;88.26;101904.66;5053939;28;45658;-68
2024/01/24 01:52:40;;;;;;;;;0.00;0.00;;;;;14.55;87.78;101909.06;5042391;28;45364;-67
2024/01/24 01:55:06;;;;;;;;;0.00;0.00;;;;;14.54;88.03;101902.94;5038709;28;45490;-67
2024/01/24 01:57:32;;;;;;;;;0.00;0.00;;;;;14.52;88.04;101903.84;5042114;28;46337;-66
2024/01/24 01:59:58;;;;;;;;;0.00;0.00;;;;;14.54;88.27;101896.81;5069645;27;73027;-66
2024/01/24 02:02:23;;;;;;;;;0.00;0.00;;;;;14.53;88.04;101900.34;5040469;28;45508;-65
2024/01/24 02:04:49;;;;;;;;;0.00;0.00;;;;;14.50;88.36;101892.50;5037618;28;45414;-66
2024/01/24 02:07:15;;;;;;;;;0.00;0.00;;;;;14.49;88.09;101902.19;5039899;28;63606;-66
2024/01/24 02:09:41;;;;;;;;;0.00;0.00;;;;;14.47;88.16;101877.66;5043145;28;45832;-66
2024/01/24 02:12:06;;;;;;;;;0.00;0.00;;;;;14.45;88.13;101882.09;5034221;28;45459;-66
2024/01/24 02:14:31;;;;;;;;;0.00;0.00;;;;;14.42;88.30;101879.53;5034335;28;48174;-66
2024/01/24 02:16:57;;;;;;;;;0.00;0.00;;;;;14.38;88.64;101884.00;5076073;27;45444;-67
2024/01/24 02:19:22;;;;;;;;;0.50;0.00;;;;;14.40;88.21;101881.34;5036708;28;73036;-67
2024/01/24 02:21:47;;;;;;;;;0.00;0.00;;;;;14.35;88.81;101875.31;5036059;28;45611;-67
2024/01/24 02:24:13;;;;;;;;;0.00;0.00;;;;;14.35;88.59;101885.84;5035093;28;71925;-66
2024/01/24 02:26:38;;;;;;;;;0.00;0.00;;;;;14.34;88.59;101886.75;5048952;28;45523;-67
2024/01/24 02:29:04;;;;;;;;;0.00;0.00;;;;;14.34;89.04;101889.38;5036570;28;45312;-67
2024/01/24 02:31:29;;;;;;;;;0.00;0.00;;;;;14.36;88.70;101900.72;5060572;28;45427;-67
2024/01/24 02:33:55;;;;;;;;;0.00;0.00;;;;;14.35;88.95;101893.75;5048582;28;58800;-67
2024/01/24 02:36:20;;;;;;;;;0.00;0.00;;;;;14.36;89.10;101890.19;5055713;28;69877;-67
2024/01/24 02:38:45;;;;;;;;;0.00;0.00;;;;;14.37;89.12;101890.16;5046297;28;73260;-67
2024/01/24 02:41:11;;;;;;;;;0.00;0.00;;;;;14.39;88.95;101883.09;5045172;28;68490;-67
2024/01/24 02:43:36;;;;;;;;;1.00;0.00;;;;;14.39;88.79;101898.88;5047019;28;45362;-66
2024/01/24 02:46:02;;;;;;;;;0.00;0.00;;;;;14.41;89.00;101890.94;5051430;28;76239;-66
2024/01/24 02:48:27;;;;;;;;;0.50;0.00;;;;;14.41;88.95;101891.84;5049111;28;45943;-66
2024/01/24 02:50:53;;;;;;;;;0.00;0.00;;;;;14.38;88.80;101881.38;5048943;28;45782;-66
2024/01/24 02:53:18;;;;;;;;;0.00;0.00;;;;;14.43;89.02;101889.16;5043550;28;45337;-66
2024/01/24 02:55:44;;;;;;;;;0.00;0.00;;;;;14.41;88.67;101877.78;5087374;27;68886;-67
2024/01/24 02:58:10;;;;;;;;;0.00;0.00;;;;;14.43;89.01;101886.53;5042917;28;45306;-67
2024/01/24 03:00:35;;;;;;;;;0.25;0.00;;;;;14.43;88.81;101889.16;5050400;28;69470;-67
2024/01/24 03:03:00;;;;;;;;;0.00;0.00;;;;;14.43;88.80;101889.16;5049203;28;46364;-66
2024/01/24 03:05:26;;;;;;;;;0.00;0.00;;;;;14.43;88.92;101882.13;5055580;28;45222;-67
2024/01/24 03:07:51;;;;;;;;;0.00;0.00;;;;;14.44;88.67;101888.25;5049875;28;69585;-67
2024/01/24 03:10:17;;;;;;;;;1.00;0.00;;;;;14.46;88.18;101890.84;5052174;28;68163;-67
2024/01/24 03:12:42;;;;;;;;;0.00;0.00;;;;;14.47;88.34;101893.44;5050362;28;45598;-67
2024/01/24 03:15:08;;;;;;;;;0.00;0.00;;;;;14.50;88.12;101896.00;5039607;28;53002;-67
2024/01/24 03:17:33;;;;;;;;;0.00;0.00;;;;;14.50;88.26;101892.50;5044261;28;45352;-66
2024/01/24 03:19:59;;;;;;;;;0.00;0.00;;;;;14.53;88.27;101906.44;5048613;28;45281;-66
2024/01/24 03:22:25;;;;;;;;;0.00;0.00;;;;;14.53;87.74;101887.16;5044636;28;45631;-67
2024/01/24 03:24:51;;;;;;;;;0.75;0.00;;;;;14.57;87.89;101891.44;5052354;28;46123;-66
2024/01/24 03:27:16;;;;;;;;;0.00;0.00;;;;;14.60;87.60;101896.66;5045086;28;45330;-67
2024/01/24 03:29:42;;;;;;;;;0.75;0.00;;;;;14.61;87.72;101888.72;5047067;28;45349;-66
2024/01/24 03:32:07;;;;;;;;;0.00;0.00;;;;;14.61;87.59;101894.00;5043731;28;45435;-66
2024/01/24 03:34:33;;;;;;;;;0.00;0.00;;;;;14.63;87.49;101883.44;5043883;28;46556;-66
2024/01/24 03:36:58;;;;;;;;;0.50;0.00;;;;;14.65;87.57;101883.41;5045836;28;45387;-66
2024/01/24 03:39:23;;;;;;;;;0.00;0.00;;;;;14.66;87.35;101878.09;5045498;28;60108;-66
2024/01/24 03:41:49;;;;;;;;;0.00;0.00;;;;;14.66;87.51;101885.09;5038500;28;58528;-67
2024/01/24 03:44:14;;;;;;;;;1.00;0.00;;;;;14.67;87.33;101881.56;5048914;28;74580;-66
2024/01/24 03:46:39;;;;;;;;;0.00;0.00;;;;;14.68;87.11;101875.38;5045713;28;65286;-67
2024/01/24 03:49:05;;;;;;;;;0.00;0.00;;;;;14.69;89.59;101879.75;5045733;28;68301;-66
2024/01/24 03:51:30;;;;;;;;;1.00;0.00;;;;;14.69;87.30;101883.25;5038127;28;69601;-66
2024/01/24 03:53:56;;;;;;;;;0.00;0.00;;;;;14.68;86.84;101885.94;5045556;28;45338;-66
2024/01/24 03:56:21;;;;;;;;;0.00;0.00;;;;;14.68;87.08;101889.44;5048649;28;45394;-68
2024/01/24 03:58:47;;;;;;;;;0.00;0.00;;;;;14.70;86.95;101871.81;5050118;28;67808;-67
2024/01/24 04:01:13;;;;;;;;;1.00;0.00;;;;;14.70;86.90;101881.50;5041517;28;73244;-67
2024/01/24 04:03:38;;;;;;;;;0.00;0.00;;;;;14.69;86.69;101869.22;5039286;28;46194;-67
2024/01/24 04:06:03;;;;;;;;;0.00;0.00;;;;;14.71;86.42;101873.53;5038938;28;71991;-67
2024/01/24 04:08:29;;;;;;;;;0.00;0.00;;;;;14.71;86.47;101889.34;5044479;28;45627;-67
2024/01/24 04:10:54;;;;;;;;;0.00;0.00;;;;;14.71;86.66;101877.94;5037389;28;68553;-67
2024/01/24 04:13:20;;;;;;;;;0.00;0.00;;;;;14.72;86.73;101882.31;5039457;28;46005;-67
2024/01/24 04:15:45;;;;;;;;;0.00;0.00;;;;;14.72;86.17;101884.97;5040849;28;45233;-67
2024/01/24 04:18:10;;;;;;;;;0.00;0.00;;;;;14.69;86.33;101880.63;5039645;28;45323;-67
2024/01/24 04:20:36;;;;;;;;;0.00;0.00;;;;;14.72;86.65;101893.72;5039644;28;73173;-67
2024/01/24 04:23:01;;;;;;;;;0.00;0.00;;;;;14.72;86.55;101885.81;5040353;28;71922;-67
2024/01/24 04:25:26;;;;;;;;;0.00;0.00;;;;;14.74;86.04;101896.31;5040975;28;45515;-66
2024/01/24 04:27:52;;;;;;;;;0.00;0.00;;;;;14.74;86.39;101891.06;5042484;28;45437;-66
2024/01/24 04:30:17;;;;;;;;;0.00;0.00;;;;;14.76;86.14;101895.38;5041174;28;74336;-66
2024/01/24 04:32:42;;;;;;;;;0.00;0.00;;;;;14.76;86.13;101900.63;5042101;28;49273;-67
2024/01/24 04:35:08;;;;;;;;;0.00;0.00;;;;;14.78;85.95;101901.50;5042542;28;45269;-66
2024/01/24 04:37:33;;;;;;;;;0.00;0.00;;;;;14.80;85.95;101910.22;5041717;28;64649;-66
2024/01/24 04:39:58;;;;;;;;;0.00;0.00;;;;;14.83;85.70;101922.44;5042159;28;73185;-67
2024/01/24 04:42:24;;;;;;;;;0.00;0.00;;;;;14.77;86.03;101923.47;5039296;28;46941;-67
2024/01/24 04:44:50;;;;;;;;;0.00;0.00;;;;;14.86;85.72;101932.91;5042287;28;45363;-67
2024/01/24 04:47:15;;;;;;;;;0.00;0.00;;;;;14.88;85.71;101930.22;5040526;28;45413;-67
2024/01/24 04:49:40;;;;;;;;;0.00;0.00;;;;;14.89;85.71;101940.75;5043297;28;73086;-67
2024/01/24 04:52:06;;;;;;;;;0.00;0.00;;;;;14.90;85.56;101945.09;5041409;28;46070;-67
2024/01/24 04:54:35;;;;;;;;;0.00;0.00;;;;;14.90;85.75;101950.34;5042474;28;45241;-67
2024/01/24 04:57:04;;;;;;;;;0.00;0.00;;;;;14.93;85.59;101949.44;5044524;28;45463;-67
2024/01/24 04:59:29;;;;;;;;;0.00;0.00;;;;;14.93;85.82;101952.06;5042518;28;45366;-67
2024/01/24 05:01:55;;;;;;;;;1.00;0.00;;;;;14.95;85.61;101971.34;5038882;28;46933;-66
2024/01/24 05:04:20;;;;;;;;;0.00;0.00;;;;;14.94;85.94;101957.31;5041456;28;71918;-66
2024/01/24 05:06:45;;;;;;;;;0.75;0.00;;;;;14.95;85.87;101958.16;5042004;28;65222;-66
2024/01/24 05:09:10;;;;;;;;;0.00;0.00;;;;;14.94;85.95;101959.94;5041596;28;71348;-67
2024/01/24 05:11:39;;;;;;;;;0.00;0.00;;;;;14.93;86.06;101963.47;5039813;28;74722;-68
2024/01/24 05:14:05;;;;;;;;;0.00;0.00;;;;;14.93;85.91;101970.53;5044865;28;45388;-67
2024/01/24 05:16:30;;;;;;;;;0.00;0.00;;;;;14.95;86.06;101980.09;5046479;28;45413;-67
2024/01/24 05:18:56;;;;;;;;;0.00;0.00;;;;;14.93;85.99;101976.66;5041587;28;45579;-67
2024/01/24 05:21:21;;;;;;;;;0.00;0.00;;;;;14.90;86.50;101986.41;5040566;28;56549;-67
2024/01/24 05:23:46;;;;;;;;;0.00;0.00;;;;;14.89;86.56;101980.28;5040926;28;70507;-67
2024/01/24 05:26:12;;;;;;;;;0.00;0.00;;;;;14.87;86.49;101982.06;5041166;28;66533;-67
2024/01/24 05:28:37;;;;;;;;;0.00;0.00;;;;;14.89;86.65;101976.75;5040799;28;71716;-67
2024/01/24 05:31:02;;;;;;;;;0.00;0.00;;;;;14.87;87.06;101994.38;5042385;28;45940;-67
2024/01/24 05:33:28;;;;;;;;;0.00;0.00;;;;;14.85;87.41;101988.28;5041070;28;45350;-66
2024/01/24 05:35:53;;;;;;;;;0.00;0.00;;;;;14.85;88.48;102002.31;5042142;28;45263;-66
2024/01/24 05:38:19;;;;;;;;;0.00;0.00;;;;;14.84;87.34;101997.09;5040956;28;59240;-66
2024/01/24 05:40:44;;;;;;;;;1.00;0.00;;;;;14.83;87.06;102009.41;5038402;28;72727;-65
2024/01/24 05:43:09;;;;;;;;;0.50;0.00;;;;;14.84;87.31;102011.16;5043531;28;45372;-65
2024/01/24 05:45:35;;;;;;;;;0.00;0.00;;;;;14.85;87.53;102014.63;5041523;28;45806;-66
2024/01/24 05:48:00;;;;;;;;;0.00;0.00;;;;;14.84;87.68;102024.31;5044864;28;45439;-66
2024/01/24 05:50:25;;;;;;;;;0.00;0.00;;;;;14.85;87.86;102033.09;5040223;28;72476;-66
2024/01/24 05:52:51;;;;;;;;;0.25;0.00;;;;;14.85;87.74;102039.22;5039563;28;71636;-65
2024/01/24 05:55:16;;;;;;;;;0.00;0.00;;;;;14.87;87.74;102055.84;5040136;28;59360;-64
2024/01/24 05:57:42;;;;;;;;;0.00;0.00;;;;;14.87;87.86;102060.28;5040981;28;71840;-65
2024/01/24 06:00:09;;;;;;;;;0.00;0.00;;;;;14.91;88.16;102075.09;5041549;28;45439;-66
2024/01/24 06:02:36;;;;;;;;;0.00;0.00;;;;;14.88;88.72;102075.19;5040616;28;45298;-65
2024/01/24 06:05:01;;;;;;;;;1.00;0.00;;;;;14.86;89.51;102088.41;5045938;28;45546;-66
2024/01/24 06:07:27;;;;;;;;;0.00;0.00;;;;;14.82;89.68;102078.84;5040383;28;45473;-66
2024/01/24 06:09:52;;;;;;;;;1.00;1.00;;;;;14.80;91.18;102081.50;5042837;28;70948;-66
2024/01/24 06:12:17;;;;;;;;;1.00;1.00;;;;;14.74;91.20;102080.78;5038452;28;72267;-65
2024/01/24 06:14:42;;;;;;;;;18.50;9.50;;;;;14.72;91.14;102091.34;5044099;28;62219;-66
2024/01/24 06:17:08;;;;;;;;;1.75;0.00;;;;;14.66;91.94;102093.25;5041599;28;72488;-66
2024/01/24 06:19:33;;;;;;;;;0.00;0.00;;;;;14.63;92.26;102093.34;5039027;28;57681;-66
2024/01/24 06:21:58;;;;;;;;;4.00;3.00;;;;;14.60;92.25;102112.69;5042296;28;65448;-66
2024/01/24 06:24:24;;;;;;;;;32.50;16.50;;;;;14.56;92.35;102103.97;5039781;28;48691;-66
2024/01/24 06:26:49;;;;;;;;;0.00;0.00;;;;;14.55;93.06;102106.63;5039659;28;72138;-67
2024/01/24 06:29:14;;;;;;;;;2.00;1.00;;;;;14.55;93.23;102125.94;5036411;28;46156;-64
2024/01/24 06:31:40;;;;;;;;;1.25;0.75;;;;;14.53;93.37;102113.69;5039596;28;65063;-70
2024/01/24 06:34:05;;;;;;;;;6.00;5.00;;;;;14.51;93.71;102120.78;5041046;28;45306;-65
2024/01/24 06:36:30;;;;;;;;;8.00;5.75;;;;;14.49;93.76;102123.44;5035287;28;49474;-70
2024/01/24 06:38:56;;;;;;;;;1.00;1.00;;;;;14.51;93.70;102118.13;5040471;28;73248;-63
2024/01/24 06:41:21;;;;;;;;;1.00;1.00;;;;;14.52;94.00;102135.66;5046292;28;45359;-63
2024/01/24 06:43:46;;;;;;;;;0.75;0.75;;;;;14.52;93.90;102140.94;5048522;28;68689;-66
2024/01/24 06:46:12;;;;;;;;;1.00;0.25;;;;;14.51;93.93;102144.47;5039659;28;71860;-68
2024/01/24 06:48:37;;;;;;;;;0.25;0.00;;;;;14.51;93.96;102139.22;5046524;28;74880;-63
2024/01/24 06:51:02;;;;;;;;;0.00;0.00;;;;;14.49;93.79;102146.28;5046083;28;73134;-66
2024/01/24 06:53:28;;;;;;;;;0.50;0.50;;;;;14.51;93.84;102170.81;5048592;28;45437;-64
2024/01/24 06:55:53;;;;;;;;;1.00;0.25;;;;;14.51;93.84;102155.88;5043700;28;68462;-65
2024/01/24 06:58:19;;;;;;;;;0.50;0.00;;;;;14.47;93.21;102151.59;5046751;28;46042;-69
2024/01/24 07:00:44;;;;;;;;;1.00;0.00;;;;;14.46;93.08;102154.25;5041541;28;45409;-63
2024/01/24 07:03:09;;;;;;;;;0.00;0.00;;;;;14.42;92.85;102159.56;5042713;28;61259;-65
2024/01/24 07:05:35;;;;;;;;;0.00;0.00;;;;;14.38;92.21;102165.81;5046404;28;45447;-67
2024/01/24 07:08:00;;;;;;;;;0.00;0.00;;;;;14.32;91.71;102168.53;5037732;28;46342;-63
2024/01/24 07:10:26;;;;;;;;;0.25;0.00;;;;;14.26;91.59;102166.03;5037686;28;45758;-64
2024/01/24 07:12:51;;;;;;;;;0.00;0.00;;;;;14.21;91.96;102168.75;5038129;28;45571;-64
2024/01/24 07:15:17;;;;;;;;;2.00;0.00;;;;;14.19;92.18;102165.28;5041416;28;45891;-63
2024/01/24 07:17:42;;;;;;;;;0.00;0.00;;;;;14.17;92.01;102169.72;5039742;28;47078;-62
2024/01/24 07:20:09;;;;;;;;;0.00;0.00;;;;;14.19;92.27;102165.28;5046198;28;45527;-64
2024/01/24 07:22:34;;;;;;;;;0.00;0.00;;;;;14.20;92.19;102174.03;5039304;28;45478;-65
2024/01/24 07:24:59;;;;;;;;;0.00;0.00;;;;;14.24;92.31;102173.09;5037617;28;63716;-61
2024/01/24 07:27:25;;;;;;;;;0.00;0.00;;;;;14.26;92.25;102170.44;5039186;28;71337;-63
2024/01/24 07:29:50;;;;;;;;;0.50;0.00;;;;;14.26;91.78;102168.69;5079351;27;70402;-59
2024/01/24 07:32:15;;;;;;;;;0.00;0.00;;;;;14.20;91.69;102177.56;5037921;28;60515;-62
2024/01/24 07:34:43;;;;;;;;;1.00;0.00;;;;;14.13;91.10;102170.69;5038300;28;45588;-59
2024/01/24 07:37:08;;;;;;;;;0.00;0.00;;;;;14.08;91.06;102182.16;5039199;28;47683;-61
2024/01/24 07:39:34;;;;;;;;;3.50;0.00;;;;;14.02;90.92;102184.03;5037816;28;45296;-62
2024/01/24 07:41:59;;;;;;;;;2.00;0.00;;;;;13.97;90.00;102188.53;5045381;28;45512;-61
2024/01/24 07:44:26;;;;;;;;;0.50;0.00;;;;;13.91;89.96;102199.13;5036838;28;45581;-60
2024/01/24 07:46:51;;;;;;;;;2.25;0.00;;;;;13.87;89.77;102210.63;5038285;28;47048;-62
2024/01/24 07:49:17;;;;;;;;;2.00;1.50;;;;;13.83;89.60;102212.44;5039304;28;45557;-62
2024/01/24 07:51:44;;;;;;;;;6.00;6.00;;;;;13.82;90.03;102213.31;5038504;28;45339;-62
2024/01/24 07:54:09;;;;;;;;;2.00;1.00;;;;;13.79;89.74;102212.50;5040725;28;45521;-61
2024/01/24 07:56:35;;;;;;;;;7.50;3.75;;;;;13.77;89.47;102219.56;5037943;28;45469;-61
2024/01/24 07:59:00;;;;;;;;;3.00;2.75;;;;;13.73;89.53;102231.91;5041604;28;73067;-61
2024/01/24 08:01:26;;;;;;;;;1.50;0.50;;;;;13.72;89.40;102242.44;5043276;28;45497;-61
2024/01/24 08:03:51;;;;;;;;;1.00;0.00;;;;;13.67;89.24;102245.16;5070515;27;45607;-62
2024/01/24 08:06:17;;;;;;;;;1.00;1.00;;;;;13.66;89.34;102241.66;5037992;28;52992;-62
2024/01/24 08:08:42;;;;;;;;;0.50;0.50;;;;;13.64;89.51;102240.81;5042956;28;45209;-62
2024/01/24 08:11:07;;;;;;;;;3.00;0.75;;;;;13.63;89.26;102249.59;5037798;28;50749;-62
2024/01/24 08:13:33;;;;;;;;;3.50;1.50;;;;;13.64;89.34;102250.47;5040981;28;58582;-60
2024/01/24 08:15:58;;;;;;;;;3.00;1.00;;;;;13.63;89.41;102252.25;5038645;28;45642;-62
2024/01/24 08:18:24;;;;;;;;;2.00;0.25;;;;;13.60;88.99;102252.28;5038554;28;73221;-61
2024/01/24 08:20:52;;;;;;;;;1.00;1.00;;;;;13.59;89.07;102250.53;5043910;28;46312;-63
2024/01/24 08:23:18;;;;;;;;;2.50;1.00;;;;;13.59;88.43;102252.28;5036642;28;45661;-61
2024/01/24 08:25:43;;;;;;;;;4.25;0.25;;;;;13.57;88.23;102275.13;5038823;28;45476;-61
2024/01/24 08:28:09;;;;;;;;;3.25;1.00;;;;;13.56;87.79;102276.00;5039988;28;45353;-61
2024/01/24 08:30:34;;;;;;;;;3.50;1.75;;;;;13.55;87.17;102279.53;5041263;28;45373;-61
2024/01/24 08:32:59;;;;;;;;;4.50;1.00;;;;;13.57;86.91;102286.50;5037744;28;45412;-63
2024/01/24 08:35:25;;;;;;;;;3.25;0.25;;;;;13.57;86.42;102277.75;5043735;28;72290;-62
2024/01/24 08:37:50;;;;;;;;;1.00;1.00;;;;;13.57;86.29;102285.66;5041820;28;60704;-63
2024/01/24 08:40:17;;;;;;;;;5.00;1.00;;;;;13.57;85.66;102293.53;5038602;28;45474;-62
2024/01/24 08:42:44;;;;;;;;;3.25;1.00;;;;;13.58;85.51;102290.91;5036149;28;45375;-60
2024/01/24 08:45:09;;;;;;;;;7.00;1.00;;;;;13.59;85.42;102286.50;5038432;28;46469;-60
2024/01/24 08:47:36;;;;;;;;;7.75;2.00;;;;;13.61;84.82;102289.97;5039853;28;45370;-60
2024/01/24 08:50:03;;;;;;;;;6.75;1.50;;;;;13.62;84.59;102289.94;5039707;28;45281;-61
2024/01/24 08:52:29;;;;;;;;;6.75;3.00;;;;;13.64;84.32;102301.31;5037880;28;45569;-61
2024/01/24 08:54:54;;;;;;;;;4.00;2.50;;;;;13.66;84.33;102291.63;5046064;28;46200;-62
2024/01/24 08:57:20;;;;;;;;;2.50;1.25;;;;;13.65;83.48;102276.75;5041868;28;72098;-63
2024/01/24 08:59:45;;;;;;;;;7.00;1.00;;;;;13.63;82.59;102269.75;5038721;28;60141;-65
2024/01/24 09:02:11;;;;;;;;;8.50;2.00;;;;;13.63;82.80;102291.69;5070346;28;45344;-65
2024/01/24 09:04:36;;;;;;;;;5.00;2.00;;;;;13.60;82.15;102298.75;5053744;28;47246;-63
2024/01/24 09:07:02;;;;;;;;;4.50;2.50;;;;;13.60;82.17;102294.38;5038570;28;45374;-65
2024/01/24 09:09:30;;;;;;;;;8.25;3.00;;;;;13.59;81.56;102300.50;5040710;28;45275;-63
2024/01/24 09:11:55;;;;;;;;;6.25;1.75;;;;;13.61;81.71;102311.88;5046851;28;45495;-63
2024/01/24 09:14:21;;;;;;;;;5.00;2.00;;;;;13.62;81.41;102312.75;5046138;28;47240;-62
2024/01/24 09:16:46;;;;;;;;;4.50;3.00;;;;;13.61;80.98;102311.88;5040905;28;66194;-62
2024/01/24 09:19:12;;;;;;;;;5.75;3.00;;;;;13.62;80.90;102326.78;5073794;28;59933;-63
2024/01/24 09:21:39;;;;;;;;;6.25;2.00;;;;;13.64;80.61;102330.25;5041349;28;45398;-63
2024/01/24 09:24:05;;;;;;;;;4.00;3.00;;;;;13.65;80.44;102345.16;5042168;28;46699;-61
2024/01/24 09:26:30;;;;;;;;;3.00;3.00;;;;;13.67;80.13;102351.25;5048395;28;48125;-63
2024/01/24 09:28:55;;;;;;;;;0.00;0.00;;;;;13.67;79.40;102361.78;5042698;28;50716;-62
2024/01/24 09:31:21;;;;;;;;;5.75;3.75;;;;;13.67;79.05;102364.41;5044609;28;58970;-68
2024/01/24 09:33:46;;;;;;;;;6.50;3.00;;;;;13.71;79.50;102370.50;5041281;28;68847;-66
2024/01/24 09:36:11;;;;;;;;;3.25;1.75;;;;;13.74;78.79;102361.69;5040653;28;45361;-61
2024/01/24 09:38:37;;;;;;;;;10.75;2.25;;;;;13.75;78.55;102352.91;5041906;28;52605;-62
2024/01/24 09:41:05;;;;;;;;;12.50;2.75;;;;;13.80;78.73;102361.59;5039183;28;73129;-61
2024/01/24 09:43:32;;;;;;;;;6.75;3.25;;;;;13.84;78.01;102371.19;5039600;28;46487;-64
2024/01/24 09:46:00;;;;;;;;;4.25;2.75;;;;;13.84;77.97;102373.81;5052518;28;45548;-65
2024/01/24 09:48:25;;;;;;;;;6.00;3.00;;;;;13.86;77.12;102358.88;5084051;27;65470;-64
2024/01/24 09:50:51;;;;;;;;;52.75;39.75;;;;;13.86;76.97;102377.28;5044439;28;45467;-65
2024/01/24 09:53:19;;;;;;;;;9.50;5.75;;;;;13.90;77.27;102386.91;5064286;28;45876;-63
2024/01/24 09:55:45;;;;;;;;;10.25;5.75;;;;;13.95;76.98;102384.19;5047018;28;45767;-62
2024/01/24 09:58:11;;;;;;;;;10.50;8.00;;;;;14.03;76.50;102380.56;5053107;28;45518;-62
2024/01/24 10:00:36;;;;;;;;;7.25;3.75;;;;;14.10;75.84;102381.34;5054101;28;45398;-62
2024/01/24 10:03:02;;;;;;;;;6.50;4.00;;;;;14.15;75.71;102386.53;5048523;28;73521;-62
2024/01/24 10:05:28;;;;;;;;;11.50;6.50;;;;;14.20;74.78;102384.69;5051346;28;50069;-61
2024/01/24 10:07:54;;;;;;;;;12.75;7.25;;;;;14.26;75.21;102391.66;5093701;27;48516;-60
2024/01/24 10:10:20;;;;;;;;;9.25;4.00;;;;;14.30;74.74;102396.81;5043559;28;45531;-63
2024/01/24 10:12:45;;;;;;;;;2.50;2.25;;;;;14.33;74.39;102406.44;5045593;28;46230;-63
2024/01/24 10:15:11;;;;;;;;;14.75;4.00;;;;;14.34;73.95;102406.44;5047798;28;45689;-62
2024/01/24 10:17:44;;;;;;;;;10.75;4.00;;;;;14.35;74.08;102423.94;5047426;28;45327;-63
2024/01/24 10:20:11;;;;;;;;;5.25;3.00;;;;;14.38;73.65;102421.28;5039592;28;45736;-61
2024/01/24 10:22:37;;;;;;;;;6.00;4.00;;;;;14.44;74.08;102420.31;5045373;28;46654;-63
2024/01/24 10:25:03;;;;;;;;;3.75;3.25;;;;;14.51;73.99;102413.19;5048175;28;45791;-63
2024/01/24 10:27:28;;;;;;;;;7.25;4.00;;;;;14.56;73.07;102411.34;5026641;28;45429;-63
2024/01/24 10:29:53;;;;;;;;;6.75;4.00;;;;;14.67;72.98;102416.47;5048499;28;72787;-63
2024/01/24 10:32:20;;;;;;;;;5.75;3.75;;;;;14.89;73.21;102409.03;5049994;28;64469;-62
2024/01/24 10:34:45;;;;;;;;;10.50;6.00;;;;;15.21;72.49;102419.00;5046701;28;48076;-62
2024/01/24 10:37:11;;;;;;;;;10.75;5.50;;;;;15.41;71.80;102412.44;5054751;28;45581;-60
2024/01/24 10:39:36;;;;;;;;;6.00;4.00;;;;;15.50;70.54;102414.91;5038517;28;67604;-62
2024/01/24 10:42:03;;;;;;;;;12.50;3.00;;;;;15.44;70.21;102425.56;5048554;28;46644;-62
2024/01/24 10:44:32;;;;;;;;;6.75;4.25;;;;;15.38;70.53;102416.88;5054519;28;45525;-63
2024/01/24 10:46:58;;;;;;;;;6.50;4.50;;;;;15.33;70.68;102434.59;5054708;28;45378;-63
2024/01/24 10:49:24;;;;;;;;;21.75;14.50;;;;;15.28;69.69;102435.53;5054681;28;58481;-63
2024/01/24 10:51:49;;;;;;;;;10.00;6.25;;;;;15.22;69.64;102438.31;5045324;28;46217;-62
2024/01/24 10:54:18;;;;;;;;;11.00;4.00;;;;;15.20;70.15;102438.34;5055297;28;45405;-62
2024/01/24 10:56:47;;;;;;;;;9.25;5.00;;;;;15.15;69.73;102440.19;5033919;28;45333;-62
2024/01/24 10:59:13;;;;;;;;;10.25;2.00;;;;;15.14;69.32;102438.47;5056003;28;45383;-63
2024/01/24 11:01:38;;;;;;;;;11.00;4.00;;;;;15.16;69.69;102436.66;5044569;28;46392;-63
2024/01/24 11:04:04;;;;;;;;;8.25;5.00;;;;;15.17;69.31;102426.09;5051254;28;70060;-63
2024/01/24 11:06:32;;;;;;;;;7.25;3.00;;;;;15.22;69.31;102409.31;5053606;28;62625;-63
2024/01/24 11:09:07;;;;;;;;;10.00;5.00;;;;;15.26;68.61;102421.53;5084778;27;47368;-63
2024/01/24 11:11:34;;;;;;;;;9.25;5.00;;;;;15.24;68.45;102421.53;5039419;28;45511;-63
2024/01/24 11:13:59;;;;;;;;;5.00;3.75;;;;;15.23;68.55;102413.66;5043331;28;72953;-63
2024/01/24 11:16:24;;;;;;;;;10.00;4.50;;;;;15.24;68.24;102407.50;5040220;28;45334;-62